Time;durP1;ratioP1;P1;durP2;ratioP2;P2;SDS_P1;SDS_P2;PMS_P1;PMS_P2;Temp;Humidity;BMP_temperature;BMP_pressure;BME280_temperature;BME280_humidity;BME280_pressure;Samples;Min_cycle;Max_cycle;Signal;HPM_P1;HPM_P2
2022/09/10 00:01:58;;;;;;;5.50;5.00;;;15.70;99.90;;;;;;5096430;28;20563;-70
2022/09/10 00:05:01;;;;;;;5.67;5.07;;;15.70;99.90;;;;;;5098260;28;20445;-71
2022/09/10 00:08:12;;;;;;;5.80;5.30;;;15.70;99.90;;;;;;5098846;28;20441;-70
2022/09/10 00:11:24;;;;;;;5.83;5.33;;;15.70;99.90;;;;;;5092047;28;20465;-71
2022/09/10 00:14:44;;;;;;;5.70;5.20;;;15.70;99.90;;;;;;5092372;28;20472;-72
2022/09/10 00:17:49;;;;;;;5.40;4.90;;;15.70;99.90;;;;;;5097683;28;20447;-70
2022/09/10 00:20:51;;;;;;;6.47;4.80;;;15.60;99.90;;;;;;5097300;28;20468;-71
2022/09/10 00:23:46;;;;;;;5.67;4.80;;;15.60;99.90;;;;;;5096361;28;20472;-71
2022/09/10 00:27:33;;;;;;;5.03;4.60;;;15.60;99.90;;;;;;5098902;28;20988;-71
2022/09/10 00:30:45;;;;;;;5.63;5.20;;;15.60;99.90;;;;;;5091927;28;20572;-70
2022/09/10 00:37:16;;;;;;;5.87;5.27;;;15.50;99.90;;;;;;5088303;28;20467;-70
2022/09/10 00:40:16;;;;;;;4.90;4.50;;;15.50;99.90;;;;;;5075713;28;20474;-70
2022/09/10 00:43:35;;;;;;;4.63;4.23;;;15.50;99.90;;;;;;5085157;28;20633;-70
2022/09/10 00:46:41;;;;;;;4.90;4.60;;;15.50;99.90;;;;;;5089190;28;20449;-70
2022/09/10 00:49:48;;;;;;;5.70;5.20;;;15.50;99.90;;;;;;5093501;28;20436;-70
2022/09/10 00:56:40;;;;;;;6.07;5.40;;;15.50;99.90;;;;;;5086219;28;20456;-70
2022/09/10 00:59:48;;;;;;;5.43;5.03;;;15.60;99.90;;;;;;5092864;28;20475;-70
2022/09/10 01:02:52;;;;;;;5.60;5.20;;;15.60;99.90;;;;;;5089845;28;20935;-70
2022/09/10 01:06:12;;;;;;;5.73;5.33;;;15.60;99.90;;;;;;5085145;28;20456;-70
2022/09/10 01:09:24;;;;;;;5.33;4.93;;;15.60;99.90;;;;;;5089120;28;20995;-70
2022/09/10 01:12:57;;;;;;;5.63;5.13;;;15.60;99.90;;;;;;5094428;28;20469;-70
2022/09/10 01:16:15;;;;;;;5.27;4.83;;;15.60;99.90;;;;;;5003571;28;20472;-70
2022/09/10 01:19:42;;;;;;;6.00;5.50;;;15.60;99.90;;;;;;5088699;28;20460;-70
2022/09/10 01:27:31;;;;;;;6.17;5.67;;;15.50;99.90;;;;;;5006283;28;20463;-70
2022/09/10 01:30:46;;;;;;;5.40;4.90;;;15.50;99.90;;;;;;5086343;28;21040;-70
2022/09/10 01:33:56;;;;;;;5.70;5.27;;;15.50;99.90;;;;;;5095546;28;21556;-70
2022/09/10 01:37:04;;;;;;;5.70;5.30;;;15.60;99.90;;;;;;5097109;28;20455;-70
2022/09/10 01:40:28;;;;;;;6.23;5.77;;;15.50;99.90;;;;;;5070873;28;20468;-70
2022/09/10 01:43:23;;;;;;;5.00;4.60;;;15.60;99.90;;;;;;5090590;28;20934;-70
2022/09/10 01:47:02;;;;;;;5.93;5.30;;;15.60;99.90;;;;;;5090076;28;20447;-70
2022/09/10 01:50:21;;;;;;;6.03;5.43;;;15.60;99.90;;;;;;5085982;28;20482;-70
2022/09/10 01:54:01;;;;;;;5.63;5.10;;;15.60;99.90;;;;;;5090390;28;20490;-70
2022/09/10 01:57:22;;;;;;;6.03;5.40;;;15.60;99.90;;;;;;5019023;28;20524;-70
2022/09/10 02:00:50;;;;;;;6.20;5.70;;;15.50;99.90;;;;;;5094452;28;20890;-70
2022/09/10 02:03:51;;;;;;;5.93;5.30;;;15.60;99.90;;;;;;5090561;28;20512;-70
2022/09/10 02:07:14;;;;;;;6.27;5.83;;;15.50;99.90;;;;;;5082734;28;20456;-70
2022/09/10 02:10:32;;;;;;;5.30;4.90;;;15.50;99.90;;;;;;5091595;28;20447;-70
2022/09/10 02:13:55;;;;;;;5.90;5.30;;;15.50;99.90;;;;;;5092075;28;20480;-70
2022/09/10 02:17:11;;;;;;;5.37;4.97;;;15.50;99.90;;;;;;5092463;28;20455;-70
2022/09/10 02:20:18;;;;;;;5.67;5.27;;;15.50;99.90;;;;;;5091913;28;20476;-70
2022/09/10 02:23:49;;;;;;;5.37;4.97;;;15.50;99.90;;;;;;5092578;28;20932;-70
2022/09/10 02:27:07;;;;;;;5.33;4.93;;;15.50;99.90;;;;;;5093561;28;20536;-70
2022/09/10 02:33:56;;;;;;;6.17;5.23;;;15.50;99.90;;;;;;5093638;28;20522;-70
2022/09/10 02:37:05;;;;;;;5.30;4.90;;;15.50;99.90;;;;;;5093101;28;20452;-70
2022/09/10 02:47:31;;;;;;;4.60;4.20;;;15.50;99.90;;;;;;5090141;28;20598;-70
2022/09/10 02:54:04;;;;;;;5.10;4.70;;;15.50;99.90;;;;;;5089623;28;21274;-70
2022/09/10 02:57:18;;;;;;;4.97;4.57;;;15.60;99.90;;;;;;5096044;28;20466;-70
2022/09/10 03:00:36;;;;;;;5.77;5.27;;;15.50;99.90;;;;;;5093008;28;20467;-70
2022/09/10 03:04:14;;;;;;;5.23;4.73;;;15.50;99.90;;;;;;5093001;28;20484;-70
2022/09/10 03:07:07;;;;;;;4.90;4.50;;;15.50;99.90;;;;;;5095020;28;20984;-70
2022/09/10 03:10:40;;;;;;;4.60;4.30;;;15.50;99.90;;;;;;5097022;28;20445;-70
2022/09/10 03:13:55;;;;;;;5.40;4.90;;;15.50;99.90;;;;;;5089510;28;20845;-70
2022/09/10 03:16:59;;;;;;;4.93;4.53;;;15.40;99.90;;;;;;5093700;28;20461;-70
2022/09/10 03:20:04;;;;;;;;;;;;;;;;;;;;;
2022/09/10 03:23:03;;;;;;;4.30;3.90;;;15.50;99.90;;;;;;5098422;28;20468;-70
2022/09/10 03:26:26;;;;;;;4.97;4.50;;;15.50;99.90;;;;;;5098008;28;21079;-70
2022/09/10 03:29:45;;;;;;;4.97;4.57;;;15.50;99.90;;;;;;5078969;28;20482;-70
2022/09/10 03:32:56;;;;;;;5.20;4.70;;;15.50;99.90;;;;;;5096862;28;20924;-70
2022/09/10 03:35:57;;;;;;;4.90;4.50;;;15.50;99.90;;;;;;5096142;28;20471;-70
2022/09/10 03:39:04;;;;;;;4.90;4.50;;;15.50;99.90;;;;;;5080679;28;20464;-70
2022/09/10 03:42:21;;;;;;;5.37;4.97;;;15.40;99.90;;;;;;5094779;28;20465;-70
2022/09/10 03:45:31;;;;;;;4.90;4.50;;;15.40;99.90;;;;;;5099499;28;20543;-70
2022/09/10 03:48:42;;;;;;;5.50;5.00;;;15.50;99.90;;;;;;5096556;28;20584;-70
2022/09/10 03:52:06;;;;;;;5.27;4.77;;;15.50;99.90;;;;;;5098065;28;20455;-71
2022/09/10 03:55:09;;;;;;;5.63;5.10;;;15.40;99.90;;;;;;5094762;28;20966;-69
2022/09/10 03:58:15;;;;;;;5.73;5.27;;;15.40;99.90;;;;;;5098338;28;20455;-69
2022/09/10 04:01:39;;;;;;;5.57;5.00;;;15.40;99.90;;;;;;5095489;28;20990;-70
2022/09/10 04:05:05;;;;;;;5.13;4.63;;;15.40;99.90;;;;;;5092239;28;20568;-70
2022/09/10 04:08:47;;;;;;;4.80;4.40;;;15.40;99.90;;;;;;5097448;28;20594;-70
2022/09/10 04:11:56;;;;;;;5.60;5.10;;;15.40;99.90;;;;;;5097913;28;21218;-70
2022/09/10 04:15:03;;;;;;;4.93;4.60;;;15.40;99.90;;;;;;5094376;28;20491;-70
2022/09/10 04:18:25;;;;;;;;;;;;;;;;;;;;;
2022/09/10 04:21:23;;;;;;;5.40;4.90;;;15.40;99.90;;;;;;5086404;28;20464;-69
2022/09/10 04:24:34;;;;;;;5.27;4.80;;;15.40;99.90;;;;;;5092577;28;20499;-69
2022/09/10 04:27:56;;;;;;;5.47;4.97;;;15.40;99.90;;;;;;5095561;28;20445;-69
2022/09/10 04:31:06;;;;;;;5.00;4.60;;;15.40;99.90;;;;;;5093389;28;21062;-69
2022/09/10 04:34:11;;;;;;;5.50;5.10;;;15.40;99.90;;;;;;5095387;28;20468;-69
2022/09/10 04:37:13;;;;;;;5.37;4.97;;;15.30;99.90;;;;;;5098033;28;20441;-69
2022/09/10 04:40:29;;;;;;;5.40;5.00;;;15.30;99.90;;;;;;5097709;28;20456;-69
2022/09/10 04:43:42;;;;;;;5.43;5.03;;;15.30;99.90;;;;;;5094395;28;20910;-69
2022/09/10 04:46:52;;;;;;;5.50;5.10;;;15.40;99.90;;;;;;5096797;28;20440;-69
2022/09/10 04:50:06;;;;;;;5.10;4.70;;;15.30;99.90;;;;;;5094940;28;20481;-69
2022/09/10 04:56:45;;;;;;;4.60;4.23;;;15.20;99.90;;;;;;5095134;28;20456;-69
2022/09/10 04:59:54;;;;;;;5.20;4.90;;;15.20;99.90;;;;;;5097977;28;20444;-69
2022/09/10 05:03:08;;;;;;;5.70;5.27;;;15.20;99.90;;;;;;5089125;28;20476;-69
2022/09/10 05:06:19;;;;;;;5.40;4.90;;;15.20;99.90;;;;;;5095987;28;20536;-69
2022/09/10 05:09:30;;;;;;;5.67;5.00;;;15.10;99.90;;;;;;5096588;28;20806;-69
2022/09/10 05:12:32;;;;;;;4.80;4.50;;;15.10;99.90;;;;;;5096548;28;20469;-69
2022/09/10 05:16:09;;;;;;;5.23;4.83;;;15.10;99.90;;;;;;5090356;28;20449;-69
2022/09/10 05:22:33;;;;;;;5.53;5.13;;;15.10;99.90;;;;;;5085597;28;20480;-69
2022/09/10 05:25:38;;;;;;;5.43;5.13;;;15.10;99.90;;;;;;5094042;28;20457;-69
2022/09/10 05:31:45;;;;;;;5.10;4.80;;;15.10;99.90;;;;;;5088498;28;20468;-69
2022/09/10 05:38:28;;;;;;;5.40;4.90;;;15.00;99.90;;;;;;5093526;28;20513;-69
2022/09/10 05:41:31;;;;;;;5.27;4.87;;;15.00;99.90;;;;;;5093009;28;20811;-69
2022/09/10 05:47:56;;;;;;;5.63;5.13;;;15.00;99.90;;;;;;5094184;28;20437;-69
2022/09/10 05:51:20;;;;;;;5.50;5.10;;;15.00;99.90;;;;;;5094760;28;20448;-69
2022/09/10 05:54:46;;;;;;;5.40;5.00;;;15.00;99.90;;;;;;5092806;28;21197;-69
2022/09/10 05:57:49;;;;;;;7.67;5.50;;;15.00;99.90;;;;;;5092072;28;20531;-69
2022/09/10 06:00:53;;;;;;;5.70;5.20;;;15.10;99.90;;;;;;5089221;28;20467;-69
2022/09/10 06:03:41;;;;;;;5.80;5.20;;;15.10;99.90;;;;;;5078580;28;20475;-69
2022/09/10 06:06:32;;;;;;;6.37;5.87;;;15.10;99.90;;;;;;5071797;28;20820;-69
2022/09/10 06:09:24;;;;;;;6.57;6.07;;;15.10;99.90;;;;;;5093680;28;20452;-69
2022/09/10 06:12:15;;;;;;;5.97;5.47;;;15.10;99.90;;;;;;5088743;28;20460;-69
2022/09/10 06:15:09;;;;;;;6.17;5.67;;;15.10;99.90;;;;;;5084798;28;20972;-69
2022/09/10 06:18:00;;;;;;;6.63;6.13;;;15.10;99.90;;;;;;5090274;28;20505;-69
2022/09/10 06:21:06;;;;;;;6.23;5.73;;;15.20;99.90;;;;;;5089784;28;20460;-71
2022/09/10 06:24:04;;;;;;;6.30;5.80;;;15.20;99.90;;;;;;5090009;28;20483;-70
2022/09/10 06:26:52;;;;;;;7.17;6.47;;;15.20;99.90;;;;;;5085337;28;20477;-69
2022/09/10 06:29:46;;;;;;;6.53;5.93;;;15.20;99.90;;;;;;5090735;28;21125;-70
2022/09/10 06:32:38;;;;;;;6.80;6.30;;;15.30;99.90;;;;;;5089067;28;20479;-68
2022/09/10 06:35:26;;;;;;;6.57;6.10;;;15.30;99.90;;;;;;5094535;28;20476;-70
2022/09/10 06:38:18;;;;;;;6.90;6.40;;;15.30;99.90;;;;;;5084635;28;20444;-70
2022/09/10 06:41:25;;;;;;;7.47;6.87;;;15.40;99.90;;;;;;5087310;28;20503;-69
2022/09/10 06:44:17;;;;;;;7.00;6.50;;;15.40;99.90;;;;;;5080599;28;20492;-69
2022/09/10 06:47:15;;;;;;;7.67;7.07;;;15.40;99.90;;;;;;5078703;28;20539;-69
2022/09/10 06:50:31;;;;;;;8.30;7.50;;;15.50;99.90;;;;;;5082497;28;20513;-69
2022/09/10 06:53:25;;;;;;;7.40;6.70;;;15.50;99.90;;;;;;5083274;28;20486;-69
2022/09/10 06:56:16;;;;;;;7.73;7.13;;;15.60;99.90;;;;;;5095067;28;20463;-69
2022/09/10 06:59:13;;;;;;;8.10;7.50;;;15.60;99.90;;;;;;5090063;28;20544;-69
2022/09/10 07:02:11;;;;;;;7.77;7.17;;;15.60;99.90;;;;;;5083432;28;20823;-69
2022/09/10 07:05:04;;;;;;;7.67;7.17;;;15.70;99.90;;;;;;5093853;28;20462;-69
2022/09/10 07:07:56;;;;;;;7.90;7.13;;;15.70;99.90;;;;;;5092094;28;20448;-71
2022/09/10 07:10:49;;;;;;;7.80;7.10;;;15.70;99.90;;;;;;5097569;28;20453;-69
2022/09/10 07:13:43;;;;;;;8.13;7.50;;;15.70;99.90;;;;;;5094867;28;20473;-70
2022/09/10 07:16:38;;;;;;;7.63;6.90;;;15.70;99.90;;;;;;5093780;28;20474;-69
2022/09/10 07:19:30;;;;;;;7.67;6.97;;;15.80;99.90;;;;;;5094131;28;20452;-70
2022/09/10 07:22:23;;;;;;;6.80;6.20;;;15.80;99.90;;;;;;5094826;28;20476;-70
2022/09/10 07:25:11;;;;;;;8.23;7.53;;;15.90;99.90;;;;;;5097472;28;20452;-70
2022/09/10 07:28:04;;;;;;;7.63;7.03;;;15.90;99.90;;;;;;5093389;28;20527;-70
2022/09/10 07:31:00;;;;;;;7.23;6.60;;;15.90;99.90;;;;;;5093488;28;20842;-70
2022/09/10 07:33:54;;;;;;;8.23;7.63;;;16.00;99.90;;;;;;5094383;28;20464;-70
2022/09/10 07:36:44;;;;;;;8.60;8.00;;;16.00;99.90;;;;;;5093704;28;20456;-70
2022/09/10 07:39:32;;;;;;;7.37;6.77;;;16.00;99.90;;;;;;5091763;28;20456;-69
2022/09/10 07:42:20;;;;;;;8.70;8.00;;;16.10;99.90;;;;;;5091847;28;20479;-69
2022/09/10 07:45:12;;;;;;;8.77;8.00;;;16.10;99.90;;;;;;5095407;28;20467;-70
2022/09/10 07:48:02;;;;;;;9.73;8.93;;;16.20;99.90;;;;;;5095711;28;20445;-69
2022/09/10 07:50:51;;;;;;;9.30;8.40;;;16.20;99.90;;;;;;5095699;28;20449;-70
2022/09/10 07:53:39;;;;;;;9.83;9.00;;;16.30;99.90;;;;;;5090941;28;20460;-69
2022/09/10 07:56:45;;;;;;;9.83;8.97;;;16.30;99.90;;;;;;5088539;28;20873;-69
2022/09/10 07:59:33;;;;;;;9.77;8.90;;;16.40;99.90;;;;;;5069107;28;20464;-69
2022/09/10 08:02:24;;;;;;;11.10;10.10;;;16.40;99.90;;;;;;5077304;28;20499;-69
2022/09/10 08:05:13;;;;;;;9.20;8.47;;;16.50;99.90;;;;;;5081037;28;20459;-69
2022/09/10 08:08:03;;;;;;;9.53;8.73;;;16.50;99.90;;;;;;5088968;28;21281;-69
2022/09/10 08:10:52;;;;;;;11.03;10.13;;;16.60;99.90;;;;;;5080292;28;20457;-70
2022/09/10 08:13:44;;;;;;;11.27;10.30;;;16.60;99.90;;;;;;5081581;28;21044;-70
2022/09/10 08:16:35;;;;;;;11.10;10.00;;;16.70;99.90;;;;;;5073056;28;20460;-70
2022/09/10 08:19:23;;;;;;;10.97;10.07;;;16.70;99.90;;;;;;5084171;28;21359;-70
2022/09/10 08:22:13;;;;;;;10.30;9.30;;;16.80;99.90;;;;;;5074142;28;21015;-70
2022/09/10 08:25:03;;;;;;;11.50;10.40;;;16.80;99.90;;;;;;5080173;28;20904;-70
2022/09/10 08:27:51;;;;;;;14.60;13.30;;;16.90;99.90;;;;;;5082296;28;20476;-69
2022/09/10 08:30:42;;;;;;;12.30;11.07;;;16.90;99.90;;;;;;5078841;28;20449;-70
2022/09/10 08:33:31;;;;;;;13.13;11.90;;;16.90;99.90;;;;;;5077080;28;20471;-70
2022/09/10 08:36:20;;;;;;;13.47;12.23;;;16.90;99.90;;;;;;5080233;28;20452;-70
2022/09/10 08:39:08;;;;;;;13.00;12.00;;;17.00;99.90;;;;;;5082275;28;20982;-70
2022/09/10 08:42:02;;;;;;;14.47;13.37;;;17.10;99.90;;;;;;5084365;28;20487;-70
2022/09/10 08:44:54;;;;;;;13.33;12.17;;;17.10;99.90;;;;;;5085379;28;20847;-70
2022/09/10 08:47:52;;;;;;;17.20;15.80;;;17.10;99.90;;;;;;5068408;28;20445;-69
2022/09/10 08:50:44;;;;;;;15.33;14.13;;;17.10;99.90;;;;;;5081186;28;20480;-70
2022/09/10 08:53:43;;;;;;;14.63;13.40;;;17.20;99.90;;;;;;5080955;28;20479;-70
2022/09/10 08:56:33;;;;;;;14.03;12.63;;;17.20;99.90;;;;;;5084322;28;20465;-70
2022/09/10 08:59:28;;;;;;;14.37;13.27;;;17.30;99.90;;;;;;5087203;28;20823;-70
2022/09/10 09:02:22;;;;;;;14.73;13.60;;;17.30;99.90;;;;;;5080970;28;21111;-69
2022/09/10 09:05:40;;;;;;;15.67;14.20;;;17.40;99.90;;;;;;5080068;28;20460;-70
2022/09/10 09:08:33;;;;;;;13.93;12.83;;;17.40;99.90;;;;;;5084058;28;21138;-69
2022/09/10 09:11:33;;;;;;;12.23;10.93;;;17.50;99.90;;;;;;5082463;28;20475;-69
2022/09/10 09:14:34;;;;;;;13.13;11.83;;;17.50;99.90;;;;;;5085076;28;20466;-70
2022/09/10 09:17:54;;;;;;;14.13;12.83;;;17.50;99.90;;;;;;5088226;28;20444;-70
2022/09/10 09:20:45;;;;;;;12.43;11.23;;;17.50;99.90;;;;;;5073335;28;20953;-69
2022/09/10 09:23:49;;;;;;;12.57;11.27;;;17.60;99.90;;;;;;5082097;28;20843;-69
2022/09/10 09:27:03;;;;;;;11.10;10.10;;;17.60;99.90;;;;;;5084919;28;20445;-69
2022/09/10 09:29:58;;;;;;;11.13;10.07;;;17.70;99.90;;;;;;5084100;28;20445;-74
2022/09/10 09:32:47;;;;;;;13.13;12.00;;;17.70;99.90;;;;;;5075946;28;20468;-69
2022/09/10 09:35:43;;;;;;;11.90;10.73;;;17.70;99.90;;;;;;5076449;28;20441;-69
2022/09/10 09:38:34;;;;;;;12.33;11.13;;;17.70;99.90;;;;;;5082643;28;20455;-69
2022/09/10 09:41:26;;;;;;;12.30;11.23;;;17.80;99.90;;;;;;5077075;28;20460;-69
2022/09/10 09:44:22;;;;;;;12.73;11.53;;;17.80;99.90;;;;;;5075335;28;20974;-69
2022/09/10 09:47:13;;;;;;;12.00;10.93;;;17.80;99.90;;;;;;5081349;28;20470;-70
2022/09/10 09:50:01;;;;;;;12.40;11.33;;;17.90;99.90;;;;;;5081765;28;20459;-70
2022/09/10 09:52:53;;;;;;;12.90;11.87;;;17.90;99.90;;;;;;5084000;28;20488;-69
2022/09/10 09:55:45;;;;;;;11.87;10.97;;;17.90;99.90;;;;;;5080009;28;20445;-70
2022/09/10 09:58:36;;;;;;;11.70;10.53;;;17.90;99.90;;;;;;5077437;28;20456;-70
2022/09/10 10:01:25;;;;;;;10.60;9.60;;;18.00;99.90;;;;;;5070444;28;20601;-70
2022/09/10 10:04:23;;;;;;;12.50;11.40;;;17.90;99.90;;;;;;5082957;28;20890;-70
2022/09/10 10:07:11;;;;;;;11.50;10.50;;;18.00;99.90;;;;;;5064939;28;20985;-70
2022/09/10 10:10:03;;;;;;;11.60;10.50;;;18.00;99.90;;;;;;5074960;28;21455;-70
2022/09/10 10:12:53;;;;;;;9.87;8.93;;;18.00;99.90;;;;;;5066433;28;20488;-70
2022/09/10 10:15:42;;;;;;;11.00;9.90;;;18.10;99.90;;;;;;5065017;28;20475;-69
2022/09/10 10:18:31;;;;;;;10.17;9.30;;;18.10;99.90;;;;;;5080254;28;20930;-71
2022/09/10 10:21:28;;;;;;;11.73;10.03;;;18.10;99.90;;;;;;5079102;28;20867;-71
2022/09/10 10:24:32;;;;;;;11.93;10.80;;;18.20;99.90;;;;;;5085543;28;20476;-71
2022/09/10 10:27:28;;;;;;;13.13;12.13;;;18.20;99.90;;;;;;5076850;28;20596;-72
2022/09/10 10:30:22;;;;;;;12.73;11.67;;;18.20;99.90;;;;;;5078042;28;24695;-72
2022/09/10 10:33:20;;;;;;;12.33;11.33;;;18.20;99.90;;;;;;5079406;28;20485;-71
2022/09/10 10:36:18;;;;;;;12.90;11.70;;;18.30;99.90;;;;;;5077025;28;20459;-70
2022/09/10 10:39:15;;;;;;;12.40;11.30;;;18.20;99.90;;;;;;5077002;28;20452;-71
2022/09/10 10:42:12;;;;;;;12.33;11.33;;;18.20;99.90;;;;;;5079767;28;20528;-71
2022/09/10 10:45:32;;;;;;;12.97;11.77;;;18.30;99.90;;;;;;5086240;28;20492;-71
2022/09/10 10:48:31;;;;;;;12.23;11.23;;;18.20;99.90;;;;;;5081754;28;20980;-71
2022/09/10 10:51:30;;;;;;;13.50;12.10;;;18.20;99.90;;;;;;5074382;28;20480;-71
2022/09/10 10:54:36;;;;;;;13.83;12.53;;;18.30;99.90;;;;;;5075727;28;20922;-70
2022/09/10 10:57:33;;;;;;;13.93;12.77;;;18.30;99.90;;;;;;5076407;28;20959;-71
2022/09/10 11:00:21;;;;;;;12.73;11.47;;;18.30;99.90;;;;;;5072318;28;20797;-70
2022/09/10 11:03:15;;;;;;;14.60;13.50;;;18.30;99.90;;;;;;5082433;28;20472;-71
2022/09/10 11:06:08;;;;;;;14.53;13.27;;;18.30;99.90;;;;;;5086652;28;20841;-70
2022/09/10 11:09:01;;;;;;;13.90;12.80;;;18.20;99.90;;;;;;5083088;28;20800;-70
2022/09/10 11:11:55;;;;;;;14.23;13.03;;;18.30;99.90;;;;;;5080902;28;21172;-71
2022/09/10 11:14:48;;;;;;;13.93;12.70;;;18.30;99.90;;;;;;5086913;28;20834;-71
2022/09/10 11:17:40;;;;;;;13.70;12.50;;;18.30;99.90;;;;;;5086256;28;20963;-71
2022/09/10 11:20:33;;;;;;;13.40;12.37;;;18.40;99.90;;;;;;5084756;28;20440;-71
2022/09/10 11:23:28;;;;;;;12.97;12.00;;;18.50;99.90;;;;;;5082084;28;20532;-71
2022/09/10 11:26:22;;;;;;;12.73;11.50;;;18.50;99.90;;;;;;5088578;28;20444;-71
2022/09/10 11:29:31;;;;;;;13.10;12.10;;;18.60;99.90;;;;;;5082311;28;20484;-71
2022/09/10 11:32:29;;;;;;;12.37;11.27;;;18.60;99.90;;;;;;5082202;28;20484;-70
2022/09/10 11:35:22;;;;;;;13.87;12.67;;;18.70;99.90;;;;;;5083344;28;20456;-71
2022/09/10 11:38:19;;;;;;;16.83;14.60;;;18.80;99.90;;;;;;5083408;28;20461;-71
2022/09/10 11:41:14;;;;;;;16.07;14.67;;;18.90;99.90;;;;;;5090327;28;20475;-71
2022/09/10 11:44:22;;;;;;;14.40;13.30;;;18.90;99.90;;;;;;5082485;28;20472;-71
2022/09/10 11:47:18;;;;;;;14.10;12.80;;;19.00;99.90;;;;;;5082164;28;20947;-70
2022/09/10 11:50:27;;;;;;;13.33;12.33;;;19.10;99.90;;;;;;5080091;28;20457;-71
2022/09/10 11:53:27;;;;;;;12.00;10.97;;;19.20;99.90;;;;;;5072587;28;20492;-71
2022/09/10 11:56:27;;;;;;;13.37;12.33;;;19.30;99.90;;;;;;5088250;28;20448;-71
2022/09/10 11:59:29;;;;;;;13.30;12.20;;;19.40;99.90;;;;;;5088985;28;20452;-71
2022/09/10 12:02:42;;;;;;;12.57;11.47;;;19.50;99.90;;;;;;5073208;28;20471;-71
2022/09/10 12:05:37;;;;;;;12.27;11.47;;;19.70;99.90;;;;;;5085041;28;20479;-71
2022/09/10 12:08:47;;;;;;;11.60;10.60;;;19.90;99.90;;;;;;5086392;28;20963;-71
2022/09/10 12:11:40;;;;;;;10.17;9.47;;;20.10;99.90;;;;;;5087954;28;20480;-71
2022/09/10 12:14:30;;;;;;;9.87;9.17;;;20.20;99.90;;;;;;5090924;28;20476;-70
2022/09/10 12:17:27;;;;;;;8.90;8.20;;;20.40;99.90;;;;;;5090533;28;20452;-70
2022/09/10 12:20:25;;;;;;;8.67;8.07;;;20.60;99.90;;;;;;5093905;28;20453;-71
2022/09/10 12:23:18;;;;;;;8.60;8.00;;;20.80;99.90;;;;;;5090602;28;20495;-70
2022/09/10 12:26:10;;;;;;;6.90;6.50;;;21.00;99.90;;;;;;5089242;28;20479;-71
2022/09/10 12:29:04;;;;;;;7.67;7.17;;;21.20;99.90;;;;;;5084826;28;20473;-71
2022/09/10 12:32:37;;;;;;;7.63;7.03;;;21.40;99.90;;;;;;5087611;28;20856;-71
2022/09/10 12:35:48;;;;;;;7.73;7.10;;;21.60;99.90;;;;;;5074900;28;20573;-71
2022/09/10 12:38:46;;;;;;;7.20;6.80;;;22.00;99.90;;;;;;5065695;28;21053;-70
2022/09/10 12:41:59;;;;;;;7.73;7.17;;;22.20;99.90;;;;;;5080152;28;20481;-70
2022/09/10 12:44:48;;;;;;;6.87;6.47;;;22.40;99.90;;;;;;5078394;28;21010;-70
2022/09/10 12:47:51;;;;;;;6.30;5.90;;;22.80;99.90;;;;;;5082413;28;20873;-70
2022/09/10 12:50:45;;;;;;;6.10;5.63;;;22.80;99.90;;;;;;5084389;28;20443;-70
2022/09/10 12:53:59;;;;;;;6.60;6.20;;;22.90;99.90;;;;;;5077841;28;20483;-69
2022/09/10 12:57:07;;;;;;;7.67;7.17;;;22.60;99.90;;;;;;5075768;28;20540;-72
2022/09/10 13:00:12;;;;;;;6.80;6.40;;;;;;;;;;5082159;28;20441;-73
2022/09/10 13:03:14;;;;;;;7.00;6.50;;;22.50;99.90;;;;;;5075352;28;21192;-71
2022/09/10 13:06:05;;;;;;;6.20;5.80;;;22.20;99.90;;;;;;5081745;28;20549;-71
2022/09/10 13:08:55;;;;;;;5.90;5.50;;;22.10;99.90;;;;;;5081765;28;20452;-71
2022/09/10 13:11:52;;;;;;;6.80;6.13;;;22.10;99.90;;;;;;5086346;28;20477;-70
2022/09/10 13:14:48;;;;;;;5.77;5.47;;;22.00;99.90;;;;;;5084651;28;20500;-70
2022/09/10 13:17:38;;;;;;;6.07;5.70;;;22.00;99.90;;;;;;5085739;28;20442;-71
2022/09/10 13:20:31;;;;;;;5.90;5.60;;;22.00;99.90;;;;;;5086009;28;20449;-72
2022/09/10 13:23:45;;;;;;;5.80;5.40;;;22.00;99.90;;;;;;5080887;28;20480;-70
2022/09/10 13:26:49;;;;;;;5.60;5.20;;;22.00;99.90;;;;;;5073684;28;20473;-71
2022/09/10 13:29:40;;;;;;;5.83;5.40;;;22.00;99.90;;;;;;5074248;28;20453;-71
2022/09/10 13:32:34;;;;;;;6.20;5.57;;;22.00;99.90;;;;;;5076363;28;20488;-71
2022/09/10 13:35:51;;;;;;;5.53;5.23;;;22.00;99.90;;;;;;5082702;28;20441;-71
2022/09/10 13:39:07;;;;;;;6.20;5.70;;;22.20;99.90;;;;;;5088953;28;20949;-70
2022/09/10 13:42:10;;;;;;;7.27;6.87;;;22.30;99.90;;;;;;5090920;28;20479;-71
2022/09/10 13:45:20;;;;;;;17.00;15.60;;;22.40;99.90;;;;;;5091693;28;20455;-70
2022/09/10 13:48:13;;;;;;;7.50;7.00;;;22.60;99.90;;;;;;5091691;28;20457;-71
2022/09/10 13:51:16;;;;;;;5.83;5.33;;;22.70;99.90;;;;;;5072573;28;20485;-70
2022/09/10 13:54:13;;;;;;;5.60;5.10;;;22.80;99.90;;;;;;5089338;28;20471;-70
2022/09/10 13:57:12;;;;;;;5.30;5.00;;;23.00;99.90;;;;;;5088366;28;20456;-70
2022/09/10 14:00:08;;;;;;;4.60;4.23;;;23.20;99.90;;;;;;5083798;28;20452;-70
2022/09/10 14:02:58;;;;;;;5.20;4.80;;;23.20;99.90;;;;;;5064039;28;20475;-70
2022/09/10 14:05:49;;;;;;;5.53;5.03;;;23.30;99.90;;;;;;5078635;28;20987;-70
2022/09/10 14:08:41;;;;;;;5.00;4.60;;;23.20;99.90;;;;;;5067548;28;20455;-70
2022/09/10 14:11:32;;;;;;;5.27;4.97;;;23.10;99.90;;;;;;5080973;28;20468;-70
2022/09/10 14:14:25;;;;;;;4.50;4.20;;;23.10;99.90;;;;;;5084768;28;20869;-71
2022/09/10 14:17:18;;;;;;;4.27;3.97;;;22.90;99.90;;;;;;5079316;28;20584;-69
2022/09/10 14:20:17;;;;;;;4.80;4.50;;;22.70;99.90;;;;;;5081227;28;20952;-70
2022/09/10 14:23:12;;;;;;;4.43;4.10;;;22.60;99.90;;;;;;5078846;28;20468;-69
2022/09/10 14:26:16;;;;;;;4.80;4.40;;;22.50;99.90;;;;;;5081039;28;20469;-69
2022/09/10 14:29:24;;;;;;;4.80;4.40;;;22.50;99.90;;;;;;5074835;28;20567;-70
2022/09/10 14:32:17;;;;;;;5.93;5.40;;;22.50;99.90;;;;;;5074706;28;20468;-70
2022/09/10 14:35:39;;;;;;;4.70;4.30;;;22.60;99.90;;;;;;5083871;28;20982;-70
2022/09/10 14:38:30;;;;;;;5.90;5.40;;;22.40;99.90;;;;;;5071063;28;21524;-70
2022/09/10 14:41:21;;;;;;;4.97;4.67;;;22.40;99.90;;;;;;5063350;28;20469;-70
2022/09/10 14:44:15;;;;;;;6.60;6.20;;;22.40;99.90;;;;;;5073981;28;20491;-69
2022/09/10 14:47:14;;;;;;;5.47;5.13;;;22.20;99.90;;;;;;5080310;28;20476;-71
2022/09/10 14:50:27;;;;;;;5.97;5.50;;;22.30;99.90;;;;;;5076280;28;20477;-70
2022/09/10 14:53:15;;;;;;;4.87;4.53;;;22.10;99.90;;;;;;5084855;28;20480;-69
2022/09/10 14:56:05;;;;;;;5.13;4.50;;;22.10;99.90;;;;;;5080486;28;20444;-69
2022/09/10 14:58:58;;;;;;;3.90;3.60;;;22.00;99.90;;;;;;5083072;28;20447;-70
2022/09/10 15:01:47;;;;;;;3.90;3.50;;;22.10;99.90;;;;;;5088644;28;20460;-70
2022/09/10 15:04:37;;;;;;;3.40;3.20;;;22.20;99.90;;;;;;5086762;28;20477;-69
2022/09/10 15:07:26;;;;;;;3.47;3.17;;;22.30;99.90;;;;;;5084027;28;20482;-69
2022/09/10 15:10:15;;;;;;;3.00;2.90;;;22.40;99.90;;;;;;5087853;28;20493;-70
2022/09/10 15:13:06;;;;;;;3.77;3.47;;;22.50;99.90;;;;;;5082580;28;21370;-73
2022/09/10 15:15:54;;;;;;;3.77;3.57;;;22.50;99.90;;;;;;5084326;28;20461;-73
2022/09/10 15:18:43;;;;;;;3.90;3.70;;;22.40;99.90;;;;;;5089183;28;20946;-73
2022/09/10 15:21:32;;;;;;;3.90;3.60;;;22.30;99.90;;;;;;5084213;28;20468;-73
2022/09/10 15:24:22;;;;;;;4.37;3.60;;;22.20;99.90;;;;;;5088978;28;20472;-73
2022/09/10 15:27:11;;;;;;;3.80;3.60;;;22.20;99.90;;;;;;5078397;28;20480;-73
2022/09/10 15:29:59;;;;;;;3.77;3.57;;;22.10;99.90;;;;;;5088094;28;20917;-70
2022/09/10 15:32:47;;;;;;;4.10;3.80;;;22.00;99.90;;;;;;5088502;28;20480;-70
2022/09/10 15:35:38;;;;;;;3.90;3.60;;;22.00;99.90;;;;;;5086036;28;21034;-70
2022/09/10 15:38:28;;;;;;;3.50;3.20;;;21.90;99.90;;;;;;5083118;28;20968;-70
2022/09/10 15:41:16;;;;;;;3.60;3.40;;;21.90;99.90;;;;;;5085385;28;20480;-71
2022/09/10 15:44:04;;;;;;;3.77;3.50;;;21.80;99.90;;;;;;5079485;28;20475;-70
2022/09/10 15:46:52;;;;;;;3.70;3.40;;;21.80;99.90;;;;;;5083817;28;20499;-70
2022/09/10 15:49:41;;;;;;;3.73;3.53;;;21.80;99.90;;;;;;5088717;28;20445;-70
2022/09/10 15:52:29;;;;;;;3.70;3.50;;;21.70;99.90;;;;;;5088961;28;21023;-70
2022/09/10 15:55:18;;;;;;;3.63;3.40;;;21.60;99.90;;;;;;5081924;28;21410;-71
2022/09/10 15:58:07;;;;;;;4.10;3.80;;;21.60;99.90;;;;;;5093605;28;20465;-70
2022/09/10 16:00:55;;;;;;;4.00;3.70;;;21.60;99.90;;;;;;5087537;28;20847;-69
2022/09/10 16:03:49;;;;;;;3.77;3.47;;;21.50;99.90;;;;;;5086251;28;20491;-70
2022/09/10 16:06:39;;;;;;;3.33;3.13;;;21.50;99.90;;;;;;5084841;28;20461;-70
2022/09/10 16:09:34;;;;;;;3.90;3.70;;;21.50;99.90;;;;;;5074198;28;20604;-73
2022/09/10 16:12:26;;;;;;;4.23;3.93;;;21.40;99.90;;;;;;5077726;28;20469;-72
2022/09/10 16:15:16;;;;;;;3.83;3.53;;;21.40;99.90;;;;;;5078462;28;20480;-73
2022/09/10 16:18:05;;;;;;;4.20;3.90;;;21.40;99.90;;;;;;5084304;28;20451;-72
2022/09/10 16:20:53;;;;;;;5.37;4.97;;;21.40;99.90;;;;;;5078734;28;20485;-72